MV Lockmaster — WDF4136 — position and weather

sailwx.info

Track history (hours):
 
Tides and Currents Weather Stations Pressure Air Temp Water Temp Dewpoint Dewpoint Depression Visibility Wind Speed Wind Dir Waves Ship Positions

MV Lockmaster

Owner: River Construction, Metaire, LA. More information available from US FCC via Universal Licensing System and Coast Guard Vessel Documentation Center.

Last reported at 2016-May-24 16:33 UTC. Time now 2016-May-24 17:40 UTC.
Position N 29°56' W 089°59'.

Type: Towing. MMSI: 367448420.

Date/timePositionNaut miles runAvg speedWind from/ knotsBaromVisibWave heightAir tempDewpointWater temp
2016-May-24 16:33N 29°56' W 089°59'3 2.9
2016-May-24 15:33N 29°58' W 090°02'0 0.0
2016-May-24 14:34N 29°58' W 090°02'1 1.4
2016-May-24 13:33N 29°60' W 090°01'1 1.4
2016-May-24 12:33N 30°00' W 089°59'0 0.0
2016-May-24 11:34N 30°00' W 089°59'3 2.7
2016-May-24 10:33N 30°00' W 089°56'3 2.7
2016-May-24 09:33N 30°00' W 089°59'0 0.0
2016-May-24 08:33N 30°00' W 089°59'0 0.0
2016-May-24 07:33N 30°00' W 089°59'0 0.0
2016-May-24 06:33N 29°60' W 089°59'0 0.0
2016-May-24 05:33N 30°00' W 089°59'0 0.0
2016-May-24 04:33N 29°60' W 089°59'0 0.0
2016-May-24 03:33N 29°60' W 089°59'0 0.0
2016-May-24 02:33N 30°00' W 089°59'0 0.0
2016-May-24 01:33N 29°60' W 089°59'0 0.0
2016-May-24 00:33N 30°00' W 089°59'0 0.0
2016-May-23 23:33N 30°00' W 089°59'0 0.0
2016-May-23 22:25N 30°00' W 089°59'0 0.0
2016-May-23 21:33N 29°60' W 089°59'0 0.0
2016-May-23 20:33N 30°00' W 089°59'0 0.0
2016-May-23 19:33N 30°00' W 089°59'0 0.0
2016-May-23 18:33N 29°60' W 089°59'0 0.0
2016-May-23 14:18N 30°00' W 089°59'0 0.0
2016-May-23 13:33N 30°00' W 089°59'0 0.0
2016-May-23 12:31N 30°00' W 089°59'0 0.0
2016-May-23 11:34N 30°00' W 089°59'0 0.0
2016-May-23 10:33N 30°00' W 089°59'0 0.0
2016-May-23 09:33N 30°00' W 089°59'0 0.0
2016-May-23 08:33N 29°60' W 089°59'0 0.0
2016-May-23 07:34N 29°60' W 089°59'0 0.0
2016-May-23 06:33N 29°60' W 089°59'0 0.0
2016-May-23 05:33N 30°00' W 089°59'0 0.0
2016-May-22 09:33N 29°60' W 089°59'0 0.0
2016-May-22 08:33N 29°60' W 089°59'3 2.7
2016-May-22 07:33N 30°00' W 089°56'1 0.6
2016-May-22 06:33N 30°00' W 089°57'2 2.2
2016-May-22 05:33N 29°60' W 089°59'0 0.0
2016-May-21 23:23N 30°00' W 089°59'0 0.0
2016-May-21 13:33N 30°00' W 089°59'0 0.0
2016-May-21 12:33N 30°00' W 089°59'0 0.0
2016-May-21 11:33N 30°00' W 089°59'0 0.0
2016-May-21 10:33N 29°60' W 089°59'0 0.0
2016-May-21 09:34N 30°00' W 089°59'0 0.0
2016-May-21 08:33N 30°00' W 089°59'0 0.0
2016-May-21 07:33N 30°00' W 089°59'0 0.0
2016-May-21 06:34N 30°00' W 089°59'0 0.0
2016-May-21 05:33N 30°00' W 089°59'0 0.0
2016-May-21 04:33N 30°00' W 089°59'0 0.0
2016-May-21 03:33N 30°00' W 089°59'0 0.0
2016-May-21 02:33N 29°60' W 089°59'0 0.0
2016-May-21 01:33N 30°00' W 089°59'1 1.4
2016-May-21 00:32N 30°00' W 089°58'0 0.1
2016-May-20 23:33N 30°00' W 089°58'1 1.5
2016-May-20 22:33N 29°60' W 089°59'0 0.1
2016-May-20 21:33N 30°00' W 089°59'0 0.0
2016-May-20 20:33N 30°00' W 089°59'0 0.0
2016-May-20 19:28N 30°00' W 089°59'0 0.0
2016-May-20 18:33N 30°00' W 089°59'0 0.0
2016-May-20 17:33N 30°00' W 089°59'0 0.0
2016-May-20 15:31N 30°00' W 089°59'0 0.0
2016-May-20 14:33N 30°00' W 089°59'0 0.0
2016-May-20 13:33N 29°60' W 089°59'0 0.0
2016-May-20 12:33N 30°00' W 089°59'0 0.0
2016-May-20 11:33N 29°60' W 089°59'0 0.0
2016-May-20 10:33N 30°00' W 089°59'0 0.0
2016-May-20 09:33N 30°00' W 089°59'0 0.0
2016-May-20 08:33N 29°60' W 089°59'0 0.0
2016-May-20 07:33N 30°00' W 089°59'0 0.0
2016-May-20 06:33N 30°00' W 089°59'0 0.0
2016-May-20 05:33N 30°00' W 089°59'3 1.5
2016-May-20 03:33N 29°58' W 090°02'0 0.1
2016-May-20 02:33N 29°58' W 090°02'0 0.2
2016-May-20 01:33N 29°57' W 090°02'2 1.5
2016-May-20 00:33N 29°59' W 090°01'2 1.9
2016-May-19 23:33N 30°00' W 089°59'0 0.0
2016-May-19 22:33N 30°00' W 089°59'0 0.0
2016-May-19 21:33N 29°60' W 089°59'0 0.0
2016-May-19 20:33N 30°00' W 089°59'0 0.0
2016-May-19 19:33N 30°00' W 089°59'0 0.0
2016-May-19 18:34N 30°00' W 089°59'0 0.0
2016-May-19 17:33N 30°00' W 089°59'0 0.0
2016-May-19 16:33N 30°00' W 089°59'0 0.0
2016-May-19 15:33N 30°00' W 089°59'0 0.0
2016-May-19 14:34N 30°00' W 089°59'0 0.0
2016-May-19 13:33N 29°60' W 089°59'0 0.0
2016-May-19 12:33N 29°60' W 089°59'0 0.0
2016-May-19 11:33N 29°60' W 089°59'0 0.0
2016-May-19 10:33N 29°60' W 089°59'0 0.0
2016-May-19 09:33N 29°60' W 089°59'0 0.0
2016-May-19 08:33N 30°00' W 089°59'0 0.0
2016-May-19 07:33N 30°00' W 089°59'0 0.0
2016-May-19 06:33N 30°00' W 089°59'0 0.0
2016-May-19 05:34N 30°00' W 089°59'0 0.0
2016-May-19 04:33N 30°00' W 089°59'0 0.0
2016-May-19 03:33N 30°00' W 089°59'0 0.0
2016-May-19 02:33N 30°00' W 089°59'3 2.8
2016-May-19 01:34N 29°58' W 090°02'0 0.1
2016-May-19 00:33N 29°58' W 090°02'0 0.0
2016-May-18 23:33N 29°58' W 090°02'0 0.0
2016-May-18 22:33N 29°58' W 090°02'0 0.0
2016-May-18 21:33N 29°58' W 090°02'0 0.0
2016-May-18 20:33N 29°58' W 090°02'2 1.9
2016-May-18 19:33N 29°57' W 090°00'0 0.1
2016-May-18 18:33N 29°56' W 090°00'2 2.1
2016-May-18 17:33N 29°58' W 090°02'1 0.6
2016-May-18 16:33N 29°59' W 090°01'2 2.1
2016-May-18 15:33N 30°00' W 089°59'0 0.2
2016-May-18 14:33N 29°60' W 089°59'1 0.7
2016-May-18 13:33N 30°00' W 089°58'2 1.4
2016-May-18 12:12N 30°00' W 089°56'3 4.4
2016-May-18 11:33N 30°00' W 089°59'0 0.0
2016-May-18 10:33N 29°60' W 089°59'0 0.0
2016-May-18 09:33N 30°00' W 089°59'0 0.0
2016-May-18 08:33N 30°00' W 089°59'0 0.0
2016-May-18 07:33N 30°00' W 089°59'0 0.0
2016-May-18 06:33N 29°60' W 089°59'0 0.0
2016-May-18 05:33N 29°60' W 089°59'0 0.0
2016-May-18 04:33N 30°00' W 089°59'0 0.0
2016-May-18 03:33N 30°00' W 089°59'0 0.0
2016-May-18 02:33N 29°60' W 089°59'0 0.0
2016-May-18 01:33N 29°60' W 089°59'0 0.0
2016-May-18 00:33N 30°00' W 089°59'0 0.2
2016-May-17 23:33N 29°60' W 089°59'0 0.2
2016-May-17 22:33N 30°00' W 089°59'0 0.0
2016-May-17 21:33N 30°00' W 089°59'2 2.0
2016-May-17 20:33N 30°00' W 089°57'0 0.4
2016-May-17 19:33N 30°00' W 089°57'2 2.4
2016-May-17 18:33N 30°00' W 089°59'0 0.0
2016-May-17 17:33N 30°00' W 089°59'0 0.0
2016-May-17 16:33N 30°00' W 089°59'0 0.0
2016-May-17 15:33N 29°60' W 089°59'0 0.0
2016-May-17 14:33N 30°00' W 089°59'0 0.0
2016-May-17 13:33N 30°00' W 089°59'0 0.0
2016-May-17 12:33N 30°00' W 089°59'0 0.0
2016-May-17 11:33N 30°00' W 089°59'0 0.0
2016-May-17 10:33N 30°00' W 089°59'0 0.0
2016-May-17 09:33N 29°60' W 089°59'0 0.0
2016-May-17 08:33N 30°00' W 089°59'0 0.0
2016-May-17 07:33N 30°00' W 089°59'0 0.0
2016-May-17 06:33N 30°00' W 089°59'0 0.0
2016-May-17 05:33N 30°00' W 089°59'0 0.0
2016-May-17 04:33N 30°00' W 089°59'0 0.0
2016-May-17 03:33N 30°00' W 089°59'0 0.0
2016-May-17 02:33N 29°60' W 089°59'0 0.0
2016-May-17 01:33N 29°60' W 089°59'0 0.0
2016-May-17 00:33N 30°00' W 089°59'0 0.0
2016-May-16 23:33N 30°00' W 089°59'0 0.0
2016-May-16 22:33N 30°00' W 089°59'0 0.0
2016-May-16 21:33N 29°60' W 089°59'0 0.0
2016-May-16 20:33N 30°00' W 089°59'0 0.0
2016-May-16 19:33N 30°00' W 089°59'0 0.0
2016-May-16 18:33N 30°00' W 089°59'0 0.0
2016-May-16 17:33N 30°00' W 089°59'3 2.9
2016-May-16 16:33N 29°58' W 090°02'1 0.9
2016-May-16 15:33N 29°58' W 090°03'1 1.0
2016-May-16 14:33N 29°58' W 090°02'0 0.5
2016-May-16 13:33N 29°58' W 090°01'0 0.0
2016-May-16 12:33N 29°58' W 090°01'0 0.0
2016-May-16 11:33N 29°58' W 090°01'3 3.1
2016-May-16 10:33N 30°00' W 089°58'2 1.4
2016-May-16 09:18N 30°00' W 089°56'3 3.7
2016-May-16 08:33N 29°60' W 089°59'0 0.0
2016-May-16 07:33N 30°00' W 089°59'0 0.0
2016-May-16 06:33N 30°00' W 089°59'0 0.0
2016-May-16 05:33N 30°00' W 089°59'0 0.0
2016-May-16 04:33N 29°60' W 089°59'0 0.0
2016-May-16 03:33N 30°00' W 089°59'0 0.0
2016-May-16 02:33N 29°60' W 089°59'0 0.0
2016-May-16 01:33N 30°00' W 089°59'0 0.0
2016-May-16 00:33N 29°60' W 089°59'0 0.0
2016-May-15 23:33N 29°60' W 089°59'0 0.0
2016-May-15 22:33N 30°00' W 089°59'4 3.5
2016-May-15 21:33N 29°58' W 090°02'1 0.9
2016-May-15 20:33N 29°58' W 090°02'0 0.2
2016-May-15 19:33N 29°58' W 090°01'0 0.0
2016-May-15 18:33N 29°58' W 090°01'2 1.6
2016-May-15 17:33N 29°60' W 090°01'1 1.1
2016-May-15 16:33N 30°00' W 089°59'0 0.2
2016-May-15 15:33N 30°00' W 089°59'0 0.2
2016-May-15 14:33N 29°60' W 089°59'0 0.0
2016-May-15 13:33N 30°00' W 089°59'0 0.0
2016-May-15 12:33N 29°60' W 089°59'0 0.0
2016-May-15 11:33N 29°60' W 089°59'0 0.0
2016-May-15 10:33N 29°60' W 089°59'0 0.1
2016-May-15 09:33N 29°60' W 089°59'0 0.1
2016-May-15 08:33N 30°00' W 089°59'0 0.0
2016-May-15 07:33N 30°00' W 089°59'0 0.0
2016-May-15 06:33N 29°60' W 089°59'0 0.0
2016-May-15 05:33N 30°00' W 089°59'0 0.0
2016-May-15 04:33N 30°00' W 089°59'0 0.0
2016-May-15 03:33N 30°00' W 089°59'0 0.0
2016-May-15 02:33N 30°00' W 089°59'0 0.0
2016-May-15 01:33N 29°60' W 089°59'0 0.0
2016-May-15 00:33N 30°00' W 089°59'0 0.0
2016-May-14 23:33N 30°00' W 089°59'0 0.0
2016-May-14 22:33N 29°60' W 089°59'0 0.0
2016-May-14 21:33N 30°00' W 089°59'0 0.0
2016-May-14 20:33N 29°60' W 089°59'0 0.0
2016-May-14 19:33N 30°00' W 089°59'0 0.0
2016-May-14 18:33N 30°00' W 089°59'0 0.0
2016-May-14 17:33N 30°00' W 089°59'  
Track history (hours):
 
Tides and Currents Weather Stations Pressure Air Temp Water Temp Dewpoint Dewpoint Depression Visibility Wind Speed Wind Dir Waves Ship Positions

MV Lockmaster

Owner: River Construction, Metaire, LA. More information available from US FCC via Universal Licensing System and Coast Guard Vessel Documentation Center.

Last reported at 2016-May-24 16:33 UTC. Time now 2016-May-24 17:40 UTC.
Position N 29°56' W 089°59'.

Type: Towing. MMSI: 367448420.

Date/timePositionNaut miles runAvg speedWind from/ knotsBaromVisibWave heightAir tempDewpointWater temp
2016-May-24 16:33N 29°56' W 089°59'3 2.9
2016-May-24 15:33N 29°58' W 090°02'0 0.0
2016-May-24 14:34N 29°58' W 090°02'1 1.4
2016-May-24 13:33N 29°60' W 090°01'1 1.4
2016-May-24 12:33N 30°00' W 089°59'0 0.0
2016-May-24 11:34N 30°00' W 089°59'3 2.7
2016-May-24 10:33N 30°00' W 089°56'3 2.7
2016-May-24 09:33N 30°00' W 089°59'0 0.0
2016-May-24 08:33N 30°00' W 089°59'0 0.0
2016-May-24 07:33N 30°00' W 089°59'0 0.0
2016-May-24 06:33N 29°60' W 089°59'0 0.0
2016-May-24 05:33N 30°00' W 089°59'0 0.0
2016-May-24 04:33N 29°60' W 089°59'0 0.0
2016-May-24 03:33N 29°60' W 089°59'0 0.0
2016-May-24 02:33N 30°00' W 089°59'0 0.0
2016-May-24 01:33N 29°60' W 089°59'0 0.0
2016-May-24 00:33N 30°00' W 089°59'0 0.0
2016-May-23 23:33N 30°00' W 089°59'0 0.0
2016-May-23 22:25N 30°00' W 089°59'0 0.0
2016-May-23 21:33N 29°60' W 089°59'0 0.0
2016-May-23 20:33N 30°00' W 089°59'0 0.0
2016-May-23 19:33N 30°00' W 089°59'0 0.0
2016-May-23 18:33N 29°60' W 089°59'0 0.0
2016-May-23 14:18N 30°00' W 089°59'0 0.0
2016-May-23 13:33N 30°00' W 089°59'0 0.0
2016-May-23 12:31N 30°00' W 089°59'0 0.0
2016-May-23 11:34N 30°00' W 089°59'0 0.0
2016-May-23 10:33N 30°00' W 089°59'0 0.0
2016-May-23 09:33N 30°00' W 089°59'0 0.0
2016-May-23 08:33N 29°60' W 089°59'0 0.0
2016-May-23 07:34N 29°60' W 089°59'0 0.0
2016-May-23 06:33N 29°60' W 089°59'0 0.0
2016-May-23 05:33N 30°00' W 089°59'0 0.0
2016-May-22 09:33N 29°60' W 089°59'0 0.0
2016-May-22 08:33N 29°60' W 089°59'3 2.7
2016-May-22 07:33N 30°00' W 089°56'1 0.6
2016-May-22 06:33N 30°00' W 089°57'2 2.2
2016-May-22 05:33N 29°60' W 089°59'0 0.0
2016-May-21 23:23N 30°00' W 089°59'0 0.0
2016-May-21 13:33N 30°00' W 089°59'0 0.0
2016-May-21 12:33N 30°00' W 089°59'0 0.0
2016-May-21 11:33N 30°00' W 089°59'0 0.0
2016-May-21 10:33N 29°60' W 089°59'0 0.0
2016-May-21 09:34N 30°00' W 089°59'0 0.0
2016-May-21 08:33N 30°00' W 089°59'0 0.0
2016-May-21 07:33N 30°00' W 089°59'0 0.0
2016-May-21 06:34N 30°00' W 089°59'0 0.0
2016-May-21 05:33N 30°00' W 089°59'0 0.0
2016-May-21 04:33N 30°00' W 089°59'0 0.0
2016-May-21 03:33N 30°00' W 089°59'0 0.0
2016-May-21 02:33N 29°60' W 089°59'0 0.0
2016-May-21 01:33N 30°00' W 089°59'1 1.4
2016-May-21 00:32N 30°00' W 089°58'0 0.1
2016-May-20 23:33N 30°00' W 089°58'1 1.5
2016-May-20 22:33N 29°60' W 089°59'0 0.1
2016-May-20 21:33N 30°00' W 089°59'0 0.0
2016-May-20 20:33N 30°00' W 089°59'0 0.0
2016-May-20 19:28N 30°00' W 089°59'0 0.0
2016-May-20 18:33N 30°00' W 089°59'0 0.0
2016-May-20 17:33N 30°00' W 089°59'0 0.0
2016-May-20 15:31N 30°00' W 089°59'0 0.0
2016-May-20 14:33N 30°00' W 089°59'0 0.0
2016-May-20 13:33N 29°60' W 089°59'0 0.0
2016-May-20 12:33N 30°00' W 089°59'0 0.0
2016-May-20 11:33N 29°60' W 089°59'0 0.0
2016-May-20 10:33N 30°00' W 089°59'0 0.0
2016-May-20 09:33N 30°00' W 089°59'0 0.0
2016-May-20 08:33N 29°60' W 089°59'0 0.0
2016-May-20 07:33N 30°00' W 089°59'0 0.0
2016-May-20 06:33N 30°00' W 089°59'0 0.0
2016-May-20 05:33N 30°00' W 089°59'3 1.5
2016-May-20 03:33N 29°58' W 090°02'0 0.1
2016-May-20 02:33N 29°58' W 090°02'0 0.2
2016-May-20 01:33N 29°57' W 090°02'2 1.5
2016-May-20 00:33N 29°59' W 090°01'2 1.9
2016-May-19 23:33N 30°00' W 089°59'0 0.0
2016-May-19 22:33N 30°00' W 089°59'0 0.0
2016-May-19 21:33N 29°60' W 089°59'0 0.0
2016-May-19 20:33N 30°00' W 089°59'0 0.0
2016-May-19 19:33N 30°00' W 089°59'0 0.0
2016-May-19 18:34N 30°00' W 089°59'0 0.0
2016-May-19 17:33N 30°00' W 089°59'0 0.0
2016-May-19 16:33N 30°00' W 089°59'0 0.0
2016-May-19 15:33N 30°00' W 089°59'0 0.0
2016-May-19 14:34N 30°00' W 089°59'0 0.0
2016-May-19 13:33N 29°60' W 089°59'0 0.0
2016-May-19 12:33N 29°60' W 089°59'0 0.0
2016-May-19 11:33N 29°60' W 089°59'0 0.0
2016-May-19 10:33N 29°60' W 089°59'0 0.0
2016-May-19 09:33N 29°60' W 089°59'0 0.0
2016-May-19 08:33N 30°00' W 089°59'0 0.0
2016-May-19 07:33N 30°00' W 089°59'0 0.0
2016-May-19 06:33N 30°00' W 089°59'0 0.0
2016-May-19 05:34N 30°00' W 089°59'0 0.0
2016-May-19 04:33N 30°00' W 089°59'0 0.0
2016-May-19 03:33N 30°00' W 089°59'0 0.0
2016-May-19 02:33N 30°00' W 089°59'3 2.8
2016-May-19 01:34N 29°58' W 090°02'0 0.1
2016-May-19 00:33N 29°58' W 090°02'0 0.0
2016-May-18 23:33N 29°58' W 090°02'0 0.0
2016-May-18 22:33N 29°58' W 090°02'0 0.0
2016-May-18 21:33N 29°58' W 090°02'0 0.0
2016-May-18 20:33N 29°58' W 090°02'2 1.9
2016-May-18 19:33N 29°57' W 090°00'0 0.1
2016-May-18 18:33N 29°56' W 090°00'2 2.1
2016-May-18 17:33N 29°58' W 090°02'1 0.6
2016-May-18 16:33N 29°59' W 090°01'2 2.1
2016-May-18 15:33N 30°00' W 089°59'0 0.2
2016-May-18 14:33N 29°60' W 089°59'1 0.7
2016-May-18 13:33N 30°00' W 089°58'2 1.4
2016-May-18 12:12N 30°00' W 089°56'3 4.4
2016-May-18 11:33N 30°00' W 089°59'0 0.0
2016-May-18 10:33N 29°60' W 089°59'0 0.0
2016-May-18 09:33N 30°00' W 089°59'0 0.0
2016-May-18 08:33N 30°00' W 089°59'0 0.0
2016-May-18 07:33N 30°00' W 089°59'0 0.0
2016-May-18 06:33N 29°60' W 089°59'0 0.0
2016-May-18 05:33N 29°60' W 089°59'0 0.0
2016-May-18 04:33N 30°00' W 089°59'0 0.0
2016-May-18 03:33N 30°00' W 089°59'0 0.0
2016-May-18 02:33N 29°60' W 089°59'0 0.0
2016-May-18 01:33N 29°60' W 089°59'0 0.0
2016-May-18 00:33N 30°00' W 089°59'0 0.2
2016-May-17 23:33N 29°60' W 089°59'0 0.2
2016-May-17 22:33N 30°00' W 089°59'0 0.0
2016-May-17 21:33N 30°00' W 089°59'2 2.0
2016-May-17 20:33N 30°00' W 089°57'0 0.4
2016-May-17 19:33N 30°00' W 089°57'2 2.4
2016-May-17 18:33N 30°00' W 089°59'0 0.0
2016-May-17 17:33N 30°00' W 089°59'0 0.0
2016-May-17 16:33N 30°00' W 089°59'0 0.0
2016-May-17 15:33N 29°60' W 089°59'0 0.0
2016-May-17 14:33N 30°00' W 089°59'0 0.0
2016-May-17 13:33N 30°00' W 089°59'0 0.0
2016-May-17 12:33N 30°00' W 089°59'0 0.0
2016-May-17 11:33N 30°00' W 089°59'0 0.0
2016-May-17 10:33N 30°00' W 089°59'0 0.0
2016-May-17 09:33N 29°60' W 089°59'0 0.0
2016-May-17 08:33N 30°00' W 089°59'0 0.0
2016-May-17 07:33N 30°00' W 089°59'0 0.0
2016-May-17 06:33N 30°00' W 089°59'0 0.0
2016-May-17 05:33N 30°00' W 089°59'0 0.0
2016-May-17 04:33N 30°00' W 089°59'0 0.0
2016-May-17 03:33N 30°00' W 089°59'0 0.0
2016-May-17 02:33N 29°60' W 089°59'0 0.0
2016-May-17 01:33N 29°60' W 089°59'0 0.0
2016-May-17 00:33N 30°00' W 089°59'0 0.0
2016-May-16 23:33N 30°00' W 089°59'0 0.0
2016-May-16 22:33N 30°00' W 089°59'0 0.0
2016-May-16 21:33N 29°60' W 089°59'0 0.0
2016-May-16 20:33N 30°00' W 089°59'0 0.0
2016-May-16 19:33N 30°00' W 089°59'0 0.0
2016-May-16 18:33N 30°00' W 089°59'0 0.0
2016-May-16 17:33N 30°00' W 089°59'3 2.9
2016-May-16 16:33N 29°58' W 090°02'1 0.9
2016-May-16 15:33N 29°58' W 090°03'1 1.0
2016-May-16 14:33N 29°58' W 090°02'0 0.5
2016-May-16 13:33N 29°58' W 090°01'0 0.0
2016-May-16 12:33N 29°58' W 090°01'0 0.0
2016-May-16 11:33N 29°58' W 090°01'3 3.1
2016-May-16 10:33N 30°00' W 089°58'2 1.4
2016-May-16 09:18N 30°00' W 089°56'3 3.7
2016-May-16 08:33N 29°60' W 089°59'0 0.0
2016-May-16 07:33N 30°00' W 089°59'0 0.0
2016-May-16 06:33N 30°00' W 089°59'0 0.0
2016-May-16 05:33N 30°00' W 089°59'0 0.0
2016-May-16 04:33N 29°60' W 089°59'0 0.0
2016-May-16 03:33N 30°00' W 089°59'0 0.0
2016-May-16 02:33N 29°60' W 089°59'0 0.0
2016-May-16 01:33N 30°00' W 089°59'0 0.0
2016-May-16 00:33N 29°60' W 089°59'0 0.0
2016-May-15 23:33N 29°60' W 089°59'0 0.0
2016-May-15 22:33N 30°00' W 089°59'4 3.5
2016-May-15 21:33N 29°58' W 090°02'1 0.9
2016-May-15 20:33N 29°58' W 090°02'0 0.2
2016-May-15 19:33N 29°58' W 090°01'0 0.0
2016-May-15 18:33N 29°58' W 090°01'2 1.6
2016-May-15 17:33N 29°60' W 090°01'1 1.1
2016-May-15 16:33N 30°00' W 089°59'0 0.2
2016-May-15 15:33N 30°00' W 089°59'0 0.2
2016-May-15 14:33N 29°60' W 089°59'0 0.0
2016-May-15 13:33N 30°00' W 089°59'0 0.0
2016-May-15 12:33N 29°60' W 089°59'0 0.0
2016-May-15 11:33N 29°60' W 089°59'0 0.0
2016-May-15 10:33N 29°60' W 089°59'0 0.1
2016-May-15 09:33N 29°60' W 089°59'0 0.1
2016-May-15 08:33N 30°00' W 089°59'0 0.0
2016-May-15 07:33N 30°00' W 089°59'0 0.0
2016-May-15 06:33N 29°60' W 089°59'0 0.0
2016-May-15 05:33N 30°00' W 089°59'0 0.0
2016-May-15 04:33N 30°00' W 089°59'0 0.0
2016-May-15 03:33N 30°00' W 089°59'0 0.0
2016-May-15 02:33N 30°00' W 089°59'0 0.0
2016-May-15 01:33N 29°60' W 089°59'0 0.0
2016-May-15 00:33N 30°00' W 089°59'0 0.0
2016-May-14 23:33N 30°00' W 089°59'0 0.0
2016-May-14 22:33N 29°60' W 089°59'0 0.0
2016-May-14 21:33N 30°00' W 089°59'0 0.0
2016-May-14 20:33N 29°60' W 089°59'0 0.0
2016-May-14 19:33N 30°00' W 089°59'0 0.0
2016-May-14 18:33N 30°00' W 089°59'0 0.0
2016-May-14 17:33N 30°00' W 089°59'  

Dump ship's entire track history